Emine Anne — TCBX9 — position and weather

sailwx.info

Track history (hours):
 
Tides and Currents Weather Stations Pressure Air Temp Water Temp Dewpoint Dewpoint Depression Visibility Wind Speed Wind Dir Waves Ship Positions

Emine Anne

Last reported at 2016-Jul-07 04:33 UTC. Time now 2016-Jul-23 21:14 UTC.
Position N 37°44' E 024°17'.
Warning: this ship's position is 16 days out of date.

Length 69 m; draft 2.9 m.

Type: Cargo ship. MMSI: 271002305.

Date/timePositionNaut miles runAvg speedWind from/ knotsBaromVisibWave heightAir tempDewpointWater temp
2016-Jul-07 04:33N 37°44' E 024°17'10 7.8
2016-Jul-07 03:18N 37°38' E 024°07'6 8.2
2016-Jul-07 02:32N 37°36' E 023°60'9 8.8
2016-Jul-07 01:33N 37°38' E 023°49'9 8.6
2016-Jul-07 00:33N 37°39' E 023°39'9 8.6
2016-Jul-06 23:33N 37°39' E 023°28'8 8.3
2016-Jul-06 22:33N 37°40' E 023°17'8 8.3
2016-Jul-06 21:33N 37°48' E 023°13'8 8.1
2016-Jul-06 20:33N 37°53' E 023°05'30 7.1
2016-Jul-06 16:21N 38°09' E 022°33'  
2016-Jul-01 15:29N 37°55' E 023°01'8 6.7
2016-Jul-01 14:15N 37°51' E 023°10'6 8.2
2016-Jul-01 13:33N 37°46' E 023°14'8 7.7
2016-Jul-01 12:33N 37°40' E 023°20'8 8.3
2016-Jul-01 11:33N 37°40' E 023°30'8 8.0
2016-Jul-01 10:33N 37°38' E 023°40'8 7.7
2016-Jul-01 09:33N 37°37' E 023°50'  
Track history (hours):
 
Tides and Currents Weather Stations Pressure Air Temp Water Temp Dewpoint Dewpoint Depression Visibility Wind Speed Wind Dir Waves Ship Positions

Emine Anne

Last reported at 2016-Jul-07 04:33 UTC. Time now 2016-Jul-23 21:14 UTC.
Position N 37°44' E 024°17'.
Warning: this ship's position is 16 days out of date.

Length 69 m; draft 2.9 m.

Type: Cargo ship. MMSI: 271002305.

Date/timePositionNaut miles runAvg speedWind from/ knotsBaromVisibWave heightAir tempDewpointWater temp
2016-Jul-07 04:33N 37°44' E 024°17'10 7.8
2016-Jul-07 03:18N 37°38' E 024°07'6 8.2
2016-Jul-07 02:32N 37°36' E 023°60'9 8.8
2016-Jul-07 01:33N 37°38' E 023°49'9 8.6
2016-Jul-07 00:33N 37°39' E 023°39'9 8.6
2016-Jul-06 23:33N 37°39' E 023°28'8 8.3
2016-Jul-06 22:33N 37°40' E 023°17'8 8.3
2016-Jul-06 21:33N 37°48' E 023°13'8 8.1
2016-Jul-06 20:33N 37°53' E 023°05'30 7.1
2016-Jul-06 16:21N 38°09' E 022°33'  
2016-Jul-01 15:29N 37°55' E 023°01'8 6.7
2016-Jul-01 14:15N 37°51' E 023°10'6 8.2
2016-Jul-01 13:33N 37°46' E 023°14'8 7.7
2016-Jul-01 12:33N 37°40' E 023°20'8 8.3
2016-Jul-01 11:33N 37°40' E 023°30'8 8.0
2016-Jul-01 10:33N 37°38' E 023°40'8 7.7
2016-Jul-01 09:33N 37°37' E 023°50'  

Dump ship's entire track history